sensor_id;sensor_type;location;lat;lon;timestamp;P1;durP1;ratioP1;P2;durP2;ratioP2
25449;SDS011;13371;52.080;5.624;2023-06-14T00:01:17;6.65;;;2.42;;
25449;SDS011;13371;52.080;5.624;2023-06-14T00:03:45;4.38;;;2.10;;
25449;SDS011;13371;52.080;5.624;2023-06-14T00:06:12;8.27;;;2.28;;
25449;SDS011;13371;52.080;5.624;2023-06-14T00:08:38;7.22;;;2.08;;
25449;SDS011;13371;52.080;5.624;2023-06-14T00:11:05;4.00;;;2.30;;
25449;SDS011;13371;52.080;5.624;2023-06-14T00:13:30;8.90;;;2.20;;
25449;SDS011;13371;52.080;5.624;2023-06-14T00:15:56;4.13;;;1.98;;
25449;SDS011;13371;52.080;5.624;2023-06-14T00:18:22;3.80;;;1.98;;
25449;SDS011;13371;52.080;5.624;2023-06-14T00:20:49;6.47;;;2.13;;
25449;SDS011;13371;52.080;5.624;2023-06-14T00:23:15;4.45;;;1.83;;
25449;SDS011;13371;52.080;5.624;2023-06-14T00:25:40;3.22;;;1.80;;
25449;SDS011;13371;52.080;5.624;2023-06-14T00:28:06;8.65;;;3.13;;
25449;SDS011;13371;52.080;5.624;2023-06-14T00:30:31;9.57;;;2.42;;
25449;SDS011;13371;52.080;5.624;2023-06-14T00:32:57;3.92;;;2.05;;
25449;SDS011;13371;52.080;5.624;2023-06-14T00:35:23;11.10;;;2.28;;
25449;SDS011;13371;52.080;5.624;2023-06-14T00:37:49;6.53;;;2.20;;
25449;SDS011;13371;52.080;5.624;2023-06-14T00:40:14;7.10;;;2.30;;
25449;SDS011;13371;52.080;5.624;2023-06-14T00:42:40;7.95;;;2.00;;
25449;SDS011;13371;52.080;5.624;2023-06-14T00:45:05;6.63;;;2.25;;
25449;SDS011;13371;52.080;5.624;2023-06-14T00:47:31;5.65;;;2.10;;
25449;SDS011;13371;52.080;5.624;2023-06-14T00:49:57;4.38;;;1.70;;
25449;SDS011;13371;52.080;5.624;2023-06-14T00:52:25;10.30;;;2.38;;
25449;SDS011;13371;52.080;5.624;2023-06-14T00:54:50;6.85;;;2.13;;
25449;SDS011;13371;52.080;5.624;2023-06-14T00:57:16;5.72;;;2.35;;
25449;SDS011;13371;52.080;5.624;2023-06-14T00:59:43;5.35;;;2.40;;
25449;SDS011;13371;52.080;5.624;2023-06-14T01:02:10;8.18;;;2.30;;
25449;SDS011;13371;52.080;5.624;2023-06-14T01:04:36;4.93;;;2.13;;
25449;SDS011;13371;52.080;5.624;2023-06-14T01:07:12;3.83;;;2.15;;
25449;SDS011;13371;52.080;5.624;2023-06-14T01:14:46;5.82;;;2.17;;
25449;SDS011;13371;52.080;5.624;2023-06-14T01:17:13;7.45;;;1.75;;
25449;SDS011;13371;52.080;5.624;2023-06-14T01:19:45;3.65;;;2.00;;
25449;SDS011;13371;52.080;5.624;2023-06-14T01:22:11;7.00;;;2.10;;
25449;SDS011;13371;52.080;5.624;2023-06-14T01:24:36;7.13;;;2.17;;
25449;SDS011;13371;52.080;5.624;2023-06-14T01:27:04;4.75;;;1.92;;
25449;SDS011;13371;52.080;5.624;2023-06-14T01:29:32;7.32;;;2.38;;
25449;SDS011;13371;52.080;5.624;2023-06-14T01:31:58;5.05;;;2.22;;
25449;SDS011;13371;52.080;5.624;2023-06-14T01:34:25;6.40;;;2.30;;
25449;SDS011;13371;52.080;5.624;2023-06-14T01:36:51;4.63;;;1.70;;
25449;SDS011;13371;52.080;5.624;2023-06-14T01:39:19;3.50;;;1.90;;
25449;SDS011;13371;52.080;5.624;2023-06-14T01:41:46;5.78;;;1.80;;
25449;SDS011;13371;52.080;5.624;2023-06-14T01:44:14;6.32;;;2.20;;
25449;SDS011;13371;52.080;5.624;2023-06-14T01:46:40;7.20;;;1.90;;
25449;SDS011;13371;52.080;5.624;2023-06-14T01:49:06;5.93;;;1.90;;
25449;SDS011;13371;52.080;5.624;2023-06-14T01:51:33;4.53;;;1.70;;
25449;SDS011;13371;52.080;5.624;2023-06-14T01:53:58;4.95;;;2.10;;
25449;SDS011;13371;52.080;5.624;2023-06-14T01:56:25;6.55;;;2.13;;
25449;SDS011;13371;52.080;5.624;2023-06-14T01:58:51;6.10;;;2.10;;
25449;SDS011;13371;52.080;5.624;2023-06-14T02:01:16;4.97;;;2.47;;
25449;SDS011;13371;52.080;5.624;2023-06-14T02:03:43;4.30;;;1.77;;
25449;SDS011;13371;52.080;5.624;2023-06-14T02:06:10;3.90;;;2.03;;
25449;SDS011;13371;52.080;5.624;2023-06-14T02:08:35;7.72;;;2.08;;
25449;SDS011;13371;52.080;5.624;2023-06-14T02:11:01;9.02;;;2.22;;
25449;SDS011;13371;52.080;5.624;2023-06-14T02:13:27;8.40;;;2.22;;
25449;SDS011;13371;52.080;5.624;2023-06-14T02:15:52;3.17;;;1.73;;
25449;SDS011;13371;52.080;5.624;2023-06-14T02:18:19;3.90;;;1.95;;
25449;SDS011;13371;52.080;5.624;2023-06-14T02:20:46;5.35;;;1.98;;
25449;SDS011;13371;52.080;5.624;2023-06-14T02:23:12;7.25;;;2.05;;
25449;SDS011;13371;52.080;5.624;2023-06-14T02:25:37;4.40;;;1.90;;
25449;SDS011;13371;52.080;5.624;2023-06-14T02:28:04;4.30;;;1.83;;
25449;SDS011;13371;52.080;5.624;2023-06-14T02:30:30;4.60;;;2.10;;
25449;SDS011;13371;52.080;5.624;2023-06-14T02:32:56;4.65;;;1.75;;
25449;SDS011;13371;52.080;5.624;2023-06-14T02:35:25;5.28;;;2.65;;
25449;SDS011;13371;52.080;5.624;2023-06-14T02:37:52;6.18;;;2.10;;
25449;SDS011;13371;52.080;5.624;2023-06-14T02:40:19;10.30;;;2.40;;
25449;SDS011;13371;52.080;5.624;2023-06-14T02:42:45;4.68;;;1.65;;
25449;SDS011;13371;52.080;5.624;2023-06-14T02:45:11;6.78;;;2.08;;
25449;SDS011;13371;52.080;5.624;2023-06-14T02:47:36;9.85;;;1.85;;
25449;SDS011;13371;52.080;5.624;2023-06-14T02:50:02;3.65;;;2.00;;
25449;SDS011;13371;52.080;5.624;2023-06-14T02:52:28;5.63;;;2.28;;
25449;SDS011;13371;52.080;5.624;2023-06-14T02:54:54;7.88;;;2.13;;
25449;SDS011;13371;52.080;5.624;2023-06-14T02:57:20;3.63;;;1.92;;
25449;SDS011;13371;52.080;5.624;2023-06-14T02:59:46;4.97;;;2.13;;
25449;SDS011;13371;52.080;5.624;2023-06-14T03:02:12;5.22;;;2.10;;
25449;SDS011;13371;52.080;5.624;2023-06-14T03:04:37;5.32;;;2.10;;
25449;SDS011;13371;52.080;5.624;2023-06-14T03:07:03;5.55;;;2.00;;
25449;SDS011;13371;52.080;5.624;2023-06-14T03:09:37;6.03;;;2.03;;
25449;SDS011;13371;52.080;5.624;2023-06-14T03:12:04;10.00;;;2.40;;
25449;SDS011;13371;52.080;5.624;2023-06-14T03:14:31;5.45;;;2.08;;
25449;SDS011;13371;52.080;5.624;2023-06-14T03:16:57;6.03;;;1.92;;
25449;SDS011;13371;52.080;5.624;2023-06-14T03:19:23;4.53;;;2.20;;
25449;SDS011;13371;52.080;5.624;2023-06-14T03:21:51;3.92;;;1.77;;
25449;SDS011;13371;52.080;5.624;2023-06-14T03:24:17;4.53;;;2.05;;
25449;SDS011;13371;52.080;5.624;2023-06-14T03:26:42;4.55;;;2.33;;
25449;SDS011;13371;52.080;5.624;2023-06-14T03:29:08;6.10;;;2.53;;
25449;SDS011;13371;52.080;5.624;2023-06-14T03:31:34;4.80;;;1.83;;
25449;SDS011;13371;52.080;5.624;2023-06-14T03:34:00;4.68;;;2.33;;
25449;SDS011;13371;52.080;5.624;2023-06-14T03:36:26;3.60;;;1.88;;
25449;SDS011;13371;52.080;5.624;2023-06-14T03:38:53;9.32;;;2.30;;
25449;SDS011;13371;52.080;5.624;2023-06-14T03:41:19;7.93;;;2.10;;
25449;SDS011;13371;52.080;5.624;2023-06-14T03:43:45;4.32;;;2.28;;
25449;SDS011;13371;52.080;5.624;2023-06-14T03:46:10;7.07;;;2.10;;
25449;SDS011;13371;52.080;5.624;2023-06-14T03:48:36;4.18;;;1.95;;
25449;SDS011;13371;52.080;5.624;2023-06-14T03:51:02;5.13;;;2.10;;
25449;SDS011;13371;52.080;5.624;2023-06-14T03:53:27;4.90;;;1.90;;
25449;SDS011;13371;52.080;5.624;2023-06-14T03:55:54;4.65;;;2.17;;
25449;SDS011;13371;52.080;5.624;2023-06-14T03:58:20;4.28;;;2.05;;
25449;SDS011;13371;52.080;5.624;2023-06-14T04:00:46;5.72;;;2.45;;
25449;SDS011;13371;52.080;5.624;2023-06-14T04:03:11;8.98;;;2.20;;
25449;SDS011;13371;52.080;5.624;2023-06-14T04:05:38;4.45;;;1.80;;
25449;SDS011;13371;52.080;5.624;2023-06-14T04:08:07;12.98;;;2.40;;
25449;SDS011;13371;52.080;5.624;2023-06-14T04:10:34;5.60;;;2.05;;
25449;SDS011;13371;52.080;5.624;2023-06-14T04:12:59;4.88;;;1.98;;
25449;SDS011;13371;52.080;5.624;2023-06-14T04:15:25;5.65;;;1.92;;
25449;SDS011;13371;52.080;5.624;2023-06-14T04:17:53;4.45;;;2.10;;
25449;SDS011;13371;52.080;5.624;2023-06-14T04:20:22;3.97;;;2.03;;
25449;SDS011;13371;52.080;5.624;2023-06-14T04:22:49;9.30;;;2.38;;
25449;SDS011;13371;52.080;5.624;2023-06-14T04:25:14;4.95;;;2.05;;
25449;SDS011;13371;52.080;5.624;2023-06-14T04:27:40;3.58;;;1.85;;
25449;SDS011;13371;52.080;5.624;2023-06-14T04:30:06;8.52;;;2.40;;
25449;SDS011;13371;52.080;5.624;2023-06-14T04:32:32;4.70;;;2.15;;
25449;SDS011;13371;52.080;5.624;2023-06-14T04:35:05;6.07;;;2.08;;
25449;SDS011;13371;52.080;5.624;2023-06-14T04:37:32;13.85;;;2.30;;
25449;SDS011;13371;52.080;5.624;2023-06-14T04:39:58;6.57;;;2.25;;
25449;SDS011;13371;52.080;5.624;2023-06-14T04:42:24;4.38;;;2.00;;
25449;SDS011;13371;52.080;5.624;2023-06-14T04:44:50;9.15;;;2.55;;
25449;SDS011;13371;52.080;5.624;2023-06-14T04:47:17;6.57;;;2.13;;
25449;SDS011;13371;52.080;5.624;2023-06-14T04:49:45;6.03;;;2.35;;
25449;SDS011;13371;52.080;5.624;2023-06-14T04:52:11;6.47;;;2.13;;
25449;SDS011;13371;52.080;5.624;2023-06-14T04:54:37;9.57;;;2.47;;
25449;SDS011;13371;52.080;5.624;2023-06-14T04:57:06;4.80;;;2.08;;
25449;SDS011;13371;52.080;5.624;2023-06-14T04:59:32;7.50;;;2.22;;
25449;SDS011;13371;52.080;5.624;2023-06-14T05:02:00;4.68;;;1.75;;
25449;SDS011;13371;52.080;5.624;2023-06-14T05:04:26;4.30;;;1.98;;
25449;SDS011;13371;52.080;5.624;2023-06-14T05:06:53;6.60;;;1.90;;
25449;SDS011;13371;52.080;5.624;2023-06-14T05:09:19;6.65;;;1.80;;
25449;SDS011;13371;52.080;5.624;2023-06-14T05:11:45;3.78;;;2.00;;
25449;SDS011;13371;52.080;5.624;2023-06-14T05:14:12;5.05;;;2.33;;
25449;SDS011;13371;52.080;5.624;2023-06-14T05:16:39;6.97;;;2.05;;
25449;SDS011;13371;52.080;5.624;2023-06-14T05:19:05;6.28;;;2.50;;
25449;SDS011;13371;52.080;5.624;2023-06-14T05:21:31;3.20;;;1.85;;
25449;SDS011;13371;52.080;5.624;2023-06-14T05:23:58;3.25;;;1.60;;
25449;SDS011;13371;52.080;5.624;2023-06-14T05:26:24;4.15;;;1.83;;
25449;SDS011;13371;52.080;5.624;2023-06-14T05:28:54;4.45;;;2.00;;
25449;SDS011;13371;52.080;5.624;2023-06-14T05:31:21;4.93;;;2.00;;
25449;SDS011;13371;52.080;5.624;2023-06-14T05:33:51;5.75;;;1.80;;
25449;SDS011;13371;52.080;5.624;2023-06-14T05:36:17;2.67;;;1.58;;
25449;SDS011;13371;52.080;5.624;2023-06-14T05:38:44;6.93;;;2.22;;
25449;SDS011;13371;52.080;5.624;2023-06-14T05:41:10;7.28;;;1.75;;
25449;SDS011;13371;52.080;5.624;2023-06-14T05:47:01;4.68;;;1.83;;
25449;SDS011;13371;52.080;5.624;2023-06-14T05:49:35;4.50;;;2.00;;
25449;SDS011;13371;52.080;5.624;2023-06-14T05:52:06;5.10;;;1.83;;
25449;SDS011;13371;52.080;5.624;2023-06-14T05:54:48;4.85;;;1.80;;
25449;SDS011;13371;52.080;5.624;2023-06-14T05:57:31;8.05;;;2.10;;
25449;SDS011;13371;52.080;5.624;2023-06-14T06:00:03;3.22;;;1.50;;
25449;SDS011;13371;52.080;5.624;2023-06-14T06:02:51;3.70;;;1.60;;
25449;SDS011;13371;52.080;5.624;2023-06-14T06:05:28;5.03;;;2.03;;
25449;SDS011;13371;52.080;5.624;2023-06-14T06:08:03;4.38;;;1.90;;
25449;SDS011;13371;52.080;5.624;2023-06-14T06:10:54;2.65;;;1.80;;
25449;SDS011;13371;52.080;5.624;2023-06-14T06:13:25;7.03;;;2.13;;
25449;SDS011;13371;52.080;5.624;2023-06-14T06:15:53;5.68;;;1.42;;
25449;SDS011;13371;52.080;5.624;2023-06-14T06:18:19;6.20;;;1.77;;
25449;SDS011;13371;52.080;5.624;2023-06-14T06:20:47;3.15;;;1.88;;
25449;SDS011;13371;52.080;5.624;2023-06-14T06:23:16;5.25;;;1.80;;
25449;SDS011;13371;52.080;5.624;2023-06-14T06:25:45;5.55;;;2.10;;
25449;SDS011;13371;52.080;5.624;2023-06-14T06:28:13;3.80;;;2.20;;
25449;SDS011;13371;52.080;5.624;2023-06-14T06:30:39;6.68;;;2.20;;
25449;SDS011;13371;52.080;5.624;2023-06-14T06:33:14;4.95;;;1.88;;
25449;SDS011;13371;52.080;5.624;2023-06-14T06:35:39;4.82;;;2.25;;
25449;SDS011;13371;52.080;5.624;2023-06-14T06:38:11;3.67;;;1.98;;
25449;SDS011;13371;52.080;5.624;2023-06-14T06:41:09;7.28;;;1.88;;
25449;SDS011;13371;52.080;5.624;2023-06-14T06:43:42;4.18;;;1.90;;
25449;SDS011;13371;52.080;5.624;2023-06-14T06:46:08;3.55;;;2.00;;
25449;SDS011;13371;52.080;5.624;2023-06-14T06:48:38;4.38;;;2.00;;
25449;SDS011;13371;52.080;5.624;2023-06-14T06:51:07;2.85;;;1.75;;
25449;SDS011;13371;52.080;5.624;2023-06-14T06:53:36;6.70;;;2.00;;
25449;SDS011;13371;52.080;5.624;2023-06-14T06:56:04;5.63;;;2.00;;
25449;SDS011;13371;52.080;5.624;2023-06-14T06:58:30;3.13;;;1.50;;
25449;SDS011;13371;52.080;5.624;2023-06-14T07:00:56;2.58;;;1.67;;
25449;SDS011;13371;52.080;5.624;2023-06-14T07:03:21;3.75;;;1.77;;
25449;SDS011;13371;52.080;5.624;2023-06-14T07:05:48;7.90;;;2.22;;
25449;SDS011;13371;52.080;5.624;2023-06-14T07:08:13;3.90;;;1.77;;
25449;SDS011;13371;52.080;5.624;2023-06-14T07:10:39;3.67;;;1.50;;
25449;SDS011;13371;52.080;5.624;2023-06-14T07:13:05;4.90;;;1.55;;
25449;SDS011;13371;52.080;5.624;2023-06-14T07:15:30;5.60;;;1.83;;
25449;SDS011;13371;52.080;5.624;2023-06-14T07:17:56;2.92;;;1.77;;
25449;SDS011;13371;52.080;5.624;2023-06-14T07:20:24;3.53;;;1.88;;
25449;SDS011;13371;52.080;5.624;2023-06-14T07:22:50;4.57;;;1.73;;
25449;SDS011;13371;52.080;5.624;2023-06-14T07:25:16;4.60;;;1.63;;
25449;SDS011;13371;52.080;5.624;2023-06-14T07:27:44;10.00;;;2.08;;
25449;SDS011;13371;52.080;5.624;2023-06-14T07:30:12;5.10;;;1.40;;
25449;SDS011;13371;52.080;5.624;2023-06-14T07:32:38;2.95;;;1.67;;
25449;SDS011;13371;52.080;5.624;2023-06-14T07:35:03;5.60;;;1.60;;
25449;SDS011;13371;52.080;5.624;2023-06-14T07:37:29;7.57;;;1.65;;
25449;SDS011;13371;52.080;5.624;2023-06-14T07:39:55;3.20;;;1.58;;
25449;SDS011;13371;52.080;5.624;2023-06-14T07:42:21;3.03;;;1.52;;
25449;SDS011;13371;52.080;5.624;2023-06-14T07:44:46;4.38;;;1.48;;
25449;SDS011;13371;52.080;5.624;2023-06-14T07:47:12;2.60;;;1.33;;
25449;SDS011;13371;52.080;5.624;2023-06-14T07:49:38;2.95;;;1.10;;
25449;SDS011;13371;52.080;5.624;2023-06-14T07:52:04;2.60;;;1.63;;
25449;SDS011;13371;52.080;5.624;2023-06-14T07:54:30;2.45;;;1.35;;
25449;SDS011;13371;52.080;5.624;2023-06-14T07:56:56;2.25;;;1.20;;
25449;SDS011;13371;52.080;5.624;2023-06-14T07:59:23;2.05;;;1.10;;
25449;SDS011;13371;52.080;5.624;2023-06-14T08:01:49;2.42;;;1.23;;
25449;SDS011;13371;52.080;5.624;2023-06-14T08:04:15;4.15;;;1.10;;
25449;SDS011;13371;52.080;5.624;2023-06-14T08:06:41;2.05;;;1.30;;
25449;SDS011;13371;52.080;5.624;2023-06-14T08:09:09;1.65;;;1.23;;
25449;SDS011;13371;52.080;5.624;2023-06-14T08:11:36;2.83;;;1.17;;
25449;SDS011;13371;52.080;5.624;2023-06-14T08:14:02;2.92;;;1.08;;
25449;SDS011;13371;52.080;5.624;2023-06-14T08:16:27;2.03;;;1.25;;
25449;SDS011;13371;52.080;5.624;2023-06-14T08:18:53;1.48;;;1.00;;
25449;SDS011;13371;52.080;5.624;2023-06-14T08:21:18;2.10;;;1.20;;
25449;SDS011;13371;52.080;5.624;2023-06-14T08:23:44;1.50;;;1.00;;
25449;SDS011;13371;52.080;5.624;2023-06-14T08:26:09;2.85;;;1.10;;
25449;SDS011;13371;52.080;5.624;2023-06-14T08:28:35;3.05;;;1.27;;
25449;SDS011;13371;52.080;5.624;2023-06-14T08:31:01;2.55;;;1.27;;
25449;SDS011;13371;52.080;5.624;2023-06-14T08:33:27;1.70;;;0.93;;
25449;SDS011;13371;52.080;5.624;2023-06-14T08:35:53;4.57;;;1.13;;
25449;SDS011;13371;52.080;5.624;2023-06-14T08:38:19;2.00;;;0.88;;
25449;SDS011;13371;52.080;5.624;2023-06-14T08:40:45;1.60;;;0.98;;
25449;SDS011;13371;52.080;5.624;2023-06-14T08:43:15;1.58;;;0.90;;
25449;SDS011;13371;52.080;5.624;2023-06-14T08:45:40;1.83;;;1.10;;
25449;SDS011;13371;52.080;5.624;2023-06-14T08:48:06;1.98;;;0.88;;
25449;SDS011;13371;52.080;5.624;2023-06-14T08:50:32;3.75;;;1.20;;
25449;SDS011;13371;52.080;5.624;2023-06-14T08:53:01;1.63;;;0.85;;
25449;SDS011;13371;52.080;5.624;2023-06-14T08:55:28;4.80;;;1.20;;
25449;SDS011;13371;52.080;5.624;2023-06-14T08:57:55;3.08;;;1.10;;
25449;SDS011;13371;52.080;5.624;2023-06-14T09:00:23;6.60;;;2.00;;
25449;SDS011;13371;52.080;5.624;2023-06-14T09:02:50;3.17;;;1.35;;
25449;SDS011;13371;52.080;5.624;2023-06-14T09:05:20;1.80;;;1.27;;
25449;SDS011;13371;52.080;5.624;2023-06-14T09:07:48;3.45;;;1.20;;
25449;SDS011;13371;52.080;5.624;2023-06-14T09:10:15;2.55;;;1.10;;
25449;SDS011;13371;52.080;5.624;2023-06-14T09:12:42;2.45;;;1.25;;
25449;SDS011;13371;52.080;5.624;2023-06-14T09:15:08;7.93;;;1.40;;
25449;SDS011;13371;52.080;5.624;2023-06-14T09:17:38;3.47;;;1.27;;
25449;SDS011;13371;52.080;5.624;2023-06-14T09:20:04;4.78;;;1.25;;
25449;SDS011;13371;52.080;5.624;2023-06-14T09:22:31;4.47;;;1.27;;
25449;SDS011;13371;52.080;5.624;2023-06-14T09:24:58;2.72;;;1.00;;
25449;SDS011;13371;52.080;5.624;2023-06-14T09:27:28;4.20;;;1.75;;
25449;SDS011;13371;52.080;5.624;2023-06-14T09:29:54;5.97;;;1.30;;
25449;SDS011;13371;52.080;5.624;2023-06-14T09:32:20;2.85;;;1.38;;
25449;SDS011;13371;52.080;5.624;2023-06-14T09:34:46;2.03;;;1.10;;
25449;SDS011;13371;52.080;5.624;2023-06-14T09:37:29;2.92;;;1.13;;
25449;SDS011;13371;52.080;5.624;2023-06-14T09:39:58;3.35;;;1.20;;
25449;SDS011;13371;52.080;5.624;2023-06-14T09:43:05;3.63;;;1.05;;
25449;SDS011;13371;52.080;5.624;2023-06-14T09:45:35;1.75;;;0.85;;
25449;SDS011;13371;52.080;5.624;2023-06-14T09:48:04;3.53;;;1.23;;
25449;SDS011;13371;52.080;5.624;2023-06-14T09:50:30;3.25;;;0.80;;
25449;SDS011;13371;52.080;5.624;2023-06-14T09:52:56;1.90;;;0.82;;
25449;SDS011;13371;52.080;5.624;2023-06-14T09:55:34;1.58;;;0.82;;
25449;SDS011;13371;52.080;5.624;2023-06-14T09:58:02;6.75;;;1.88;;
25449;SDS011;13371;52.080;5.624;2023-06-14T10:00:31;2.95;;;1.00;;
25449;SDS011;13371;52.080;5.624;2023-06-14T10:02:59;2.85;;;1.15;;
25449;SDS011;13371;52.080;5.624;2023-06-14T10:05:28;2.10;;;1.15;;
25449;SDS011;13371;52.080;5.624;2023-06-14T10:07:59;1.73;;;1.10;;
25449;SDS011;13371;52.080;5.624;2023-06-14T10:10:28;1.92;;;0.98;;
25449;SDS011;13371;52.080;5.624;2023-06-14T10:12:55;2.35;;;1.20;;
25449;SDS011;13371;52.080;5.624;2023-06-14T10:15:55;1.33;;;1.00;;
25449;SDS011;13371;52.080;5.624;2023-06-14T10:23:53;4.38;;;1.25;;
25449;SDS011;13371;52.080;5.624;2023-06-14T10:26:22;2.63;;;0.98;;
25449;SDS011;13371;52.080;5.624;2023-06-14T10:29:07;4.85;;;1.35;;
25449;SDS011;13371;52.080;5.624;2023-06-14T10:31:50;5.43;;;1.40;;
25449;SDS011;13371;52.080;5.624;2023-06-14T10:34:26;3.97;;;1.33;;
25449;SDS011;13371;52.080;5.624;2023-06-14T10:37:06;2.47;;;0.90;;
25449;SDS011;13371;52.080;5.624;2023-06-14T10:39:38;1.65;;;0.88;;
25449;SDS011;13371;52.080;5.624;2023-06-14T10:42:06;4.25;;;1.17;;
25449;SDS011;13371;52.080;5.624;2023-06-14T10:44:32;2.22;;;1.25;;
25449;SDS011;13371;52.080;5.624;2023-06-14T10:46:59;2.00;;;1.20;;
25449;SDS011;13371;52.080;5.624;2023-06-14T10:49:37;4.18;;;1.10;;
25449;SDS011;13371;52.080;5.624;2023-06-14T10:52:14;4.40;;;1.07;;
25449;SDS011;13371;52.080;5.624;2023-06-14T10:54:58;4.30;;;1.02;;
25449;SDS011;13371;52.080;5.624;2023-06-14T10:57:34;3.70;;;1.10;;
25449;SDS011;13371;52.080;5.624;2023-06-14T11:00:00;2.75;;;1.00;;
25449;SDS011;13371;52.080;5.624;2023-06-14T11:02:48;2.80;;;1.27;;
25449;SDS011;13371;52.080;5.624;2023-06-14T11:05:25;2.78;;;1.30;;
25449;SDS011;13371;52.080;5.624;2023-06-14T11:10:37;3.72;;;1.00;;
25449;SDS011;13371;52.080;5.624;2023-06-14T11:13:03;6.55;;;1.20;;
25449;SDS011;13371;52.080;5.624;2023-06-14T11:15:32;2.13;;;1.05;;
25449;SDS011;13371;52.080;5.624;2023-06-14T11:18:01;1.83;;;1.20;;
25449;SDS011;13371;52.080;5.624;2023-06-14T11:20:30;3.17;;;1.20;;
25449;SDS011;13371;52.080;5.624;2023-06-14T11:22:56;4.80;;;1.30;;
25449;SDS011;13371;52.080;5.624;2023-06-14T11:25:22;13.85;;;2.65;;
25449;SDS011;13371;52.080;5.624;2023-06-14T11:27:51;2.67;;;1.10;;
25449;SDS011;13371;52.080;5.624;2023-06-14T11:30:17;5.38;;;0.80;;
25449;SDS011;13371;52.080;5.624;2023-06-14T11:32:46;2.05;;;1.13;;
25449;SDS011;13371;52.080;5.624;2023-06-14T11:37:42;3.53;;;1.75;;
25449;SDS011;13371;52.080;5.624;2023-06-14T11:40:09;2.28;;;1.17;;
25449;SDS011;13371;52.080;5.624;2023-06-14T11:42:36;6.05;;;1.30;;
25449;SDS011;13371;52.080;5.624;2023-06-14T11:45:03;1.88;;;1.00;;
25449;SDS011;13371;52.080;5.624;2023-06-14T11:47:32;3.22;;;0.90;;
25449;SDS011;13371;52.080;5.624;2023-06-14T11:50:02;4.63;;;0.98;;
25449;SDS011;13371;52.080;5.624;2023-06-14T11:52:29;5.43;;;0.95;;
25449;SDS011;13371;52.080;5.624;2023-06-14T11:54:55;1.67;;;0.93;;
25449;SDS011;13371;52.080;5.624;2023-06-14T11:57:21;2.17;;;0.80;;
25449;SDS011;13371;52.080;5.624;2023-06-14T11:59:47;2.08;;;1.13;;
25449;SDS011;13371;52.080;5.624;2023-06-14T12:02:14;1.70;;;0.95;;
25449;SDS011;13371;52.080;5.624;2023-06-14T12:04:43;3.40;;;1.20;;
25449;SDS011;13371;52.080;5.624;2023-06-14T12:07:12;1.77;;;1.00;;
25449;SDS011;13371;52.080;5.624;2023-06-14T12:12:23;1.90;;;1.10;;
25449;SDS011;13371;52.080;5.624;2023-06-14T12:14:53;3.05;;;1.08;;
25449;SDS011;13371;52.080;5.624;2023-06-14T12:17:20;1.40;;;0.90;;
25449;SDS011;13371;52.080;5.624;2023-06-14T12:19:46;1.85;;;0.90;;
25449;SDS011;13371;52.080;5.624;2023-06-14T12:22:15;5.30;;;1.00;;
25449;SDS011;13371;52.080;5.624;2023-06-14T12:24:45;2.55;;;1.10;;
25449;SDS011;13371;52.080;5.624;2023-06-14T12:27:11;2.13;;;1.08;;
25449;SDS011;13371;52.080;5.624;2023-06-14T12:29:41;3.42;;;0.98;;
25449;SDS011;13371;52.080;5.624;2023-06-14T12:32:10;4.75;;;1.13;;
25449;SDS011;13371;52.080;5.624;2023-06-14T12:34:36;2.90;;;1.23;;
25449;SDS011;13371;52.080;5.624;2023-06-14T12:37:02;2.22;;;1.20;;
25449;SDS011;13371;52.080;5.624;2023-06-14T12:39:29;6.38;;;1.23;;
25449;SDS011;13371;52.080;5.624;2023-06-14T12:41:56;8.23;;;1.38;;
25449;SDS011;13371;52.080;5.624;2023-06-14T12:44:22;2.10;;;1.00;;
25449;SDS011;13371;52.080;5.624;2023-06-14T12:46:48;2.25;;;1.20;;
25449;SDS011;13371;52.080;5.624;2023-06-14T12:49:16;3.60;;;1.27;;
25449;SDS011;13371;52.080;5.624;2023-06-14T12:51:42;5.22;;;1.42;;
25449;SDS011;13371;52.080;5.624;2023-06-14T12:54:08;2.42;;;1.13;;
25449;SDS011;13371;52.080;5.624;2023-06-14T12:56:33;4.30;;;1.10;;
25449;SDS011;13371;52.080;5.624;2023-06-14T12:58:59;3.92;;;1.38;;
25449;SDS011;13371;52.080;5.624;2023-06-14T13:01:25;3.13;;;1.40;;
25449;SDS011;13371;52.080;5.624;2023-06-14T13:03:51;6.20;;;1.85;;
25449;SDS011;13371;52.080;5.624;2023-06-14T13:06:20;2.60;;;1.15;;
25449;SDS011;13371;52.080;5.624;2023-06-14T13:08:47;2.35;;;1.30;;
25449;SDS011;13371;52.080;5.624;2023-06-14T13:11:13;2.60;;;1.10;;
25449;SDS011;13371;52.080;5.624;2023-06-14T13:13:38;1.30;;;0.77;;
25449;SDS011;13371;52.080;5.624;2023-06-14T13:16:04;5.45;;;1.27;;
25449;SDS011;13371;52.080;5.624;2023-06-14T13:18:30;4.45;;;0.93;;
25449;SDS011;13371;52.080;5.624;2023-06-14T13:20:55;3.30;;;1.10;;
25449;SDS011;13371;52.080;5.624;2023-06-14T13:23:21;5.43;;;1.20;;
25449;SDS011;13371;52.080;5.624;2023-06-14T13:25:46;3.08;;;1.00;;
25449;SDS011;13371;52.080;5.624;2023-06-14T13:28:14;4.47;;;1.20;;
25449;SDS011;13371;52.080;5.624;2023-06-14T13:30:40;4.22;;;1.00;;
25449;SDS011;13371;52.080;5.624;2023-06-14T13:33:05;4.55;;;1.30;;
25449;SDS011;13371;52.080;5.624;2023-06-14T13:35:31;1.55;;;0.90;;
25449;SDS011;13371;52.080;5.624;2023-06-14T13:37:56;8.07;;;1.23;;
25449;SDS011;13371;52.080;5.624;2023-06-14T13:40:22;1.27;;;0.82;;
25449;SDS011;13371;52.080;5.624;2023-06-14T13:42:47;3.63;;;1.02;;
25449;SDS011;13371;52.080;5.624;2023-06-14T13:45:15;1.80;;;0.88;;
25449;SDS011;13371;52.080;5.624;2023-06-14T13:47:41;2.50;;;1.00;;
25449;SDS011;13371;52.080;5.624;2023-06-14T13:50:06;1.85;;;0.73;;
25449;SDS011;13371;52.080;5.624;2023-06-14T13:52:33;1.20;;;0.68;;
25449;SDS011;13371;52.080;5.624;2023-06-14T13:54:59;2.67;;;0.80;;
25449;SDS011;13371;52.080;5.624;2023-06-14T13:57:33;1.90;;;0.95;;
25449;SDS011;13371;52.080;5.624;2023-06-14T14:00:11;1.40;;;0.90;;
25449;SDS011;13371;52.080;5.624;2023-06-14T14:02:46;1.30;;;0.93;;
25449;SDS011;13371;52.080;5.624;2023-06-14T14:05:16;3.08;;;0.88;;
25449;SDS011;13371;52.080;5.624;2023-06-14T14:07:42;2.08;;;0.73;;
25449;SDS011;13371;52.080;5.624;2023-06-14T14:10:11;0.95;;;0.68;;
25449;SDS011;13371;52.080;5.624;2023-06-14T14:12:54;1.58;;;0.65;;
25449;SDS011;13371;52.080;5.624;2023-06-14T14:15:22;2.50;;;0.98;;
25449;SDS011;13371;52.080;5.624;2023-06-14T14:17:55;3.78;;;1.08;;
25449;SDS011;13371;52.080;5.624;2023-06-14T14:20:22;1.40;;;0.65;;
25449;SDS011;13371;52.080;5.624;2023-06-14T14:22:48;3.00;;;0.90;;
25449;SDS011;13371;52.080;5.624;2023-06-14T14:25:16;3.42;;;0.75;;
25449;SDS011;13371;52.080;5.624;2023-06-14T14:27:42;4.40;;;0.80;;
25449;SDS011;13371;52.080;5.624;2023-06-14T14:30:07;3.20;;;0.80;;
25449;SDS011;13371;52.080;5.624;2023-06-14T14:32:33;2.35;;;1.10;;
25449;SDS011;13371;52.080;5.624;2023-06-14T14:34:59;4.15;;;0.85;;
25449;SDS011;13371;52.080;5.624;2023-06-14T14:37:24;1.48;;;0.70;;
25449;SDS011;13371;52.080;5.624;2023-06-14T14:39:50;4.30;;;0.93;;
25449;SDS011;13371;52.080;5.624;2023-06-14T14:42:16;1.95;;;1.00;;
25449;SDS011;13371;52.080;5.624;2023-06-14T14:44:41;2.40;;;0.88;;
25449;SDS011;13371;52.080;5.624;2023-06-14T14:47:07;3.05;;;0.93;;
25449;SDS011;13371;52.080;5.624;2023-06-14T14:49:33;1.83;;;1.10;;
25449;SDS011;13371;52.080;5.624;2023-06-14T14:51:58;3.35;;;0.90;;
25449;SDS011;13371;52.080;5.624;2023-06-14T14:54:24;4.55;;;1.45;;
25449;SDS011;13371;52.080;5.624;2023-06-14T14:56:50;3.30;;;1.42;;
25449;SDS011;13371;52.080;5.624;2023-06-14T14:59:16;2.40;;;1.10;;
25449;SDS011;13371;52.080;5.624;2023-06-14T15:01:42;3.17;;;0.88;;
25449;SDS011;13371;52.080;5.624;2023-06-14T15:04:08;2.70;;;1.02;;
25449;SDS011;13371;52.080;5.624;2023-06-14T15:06:33;1.90;;;0.80;;
25449;SDS011;13371;52.080;5.624;2023-06-14T15:09:03;2.15;;;0.90;;
25449;SDS011;13371;52.080;5.624;2023-06-14T15:11:29;4.13;;;0.93;;
25449;SDS011;13371;52.080;5.624;2023-06-14T15:13:55;3.03;;;0.95;;